< < Back
Terminal Aerodrome Forecast


Current Version              Previous Versions:   1  2  3  4  5  6  7  8  9  

Terminal Aerodrome Forecast

285
FTUS42 KILM 242300 CCA
TAFFLO
TAF COR
KFLO 242359Z 2500/2524 22009KT P6SM VCSH OVC080
      TEMPO 2500/2501 6SM TSRA SCT050CB
     FM250900 27003KT 5SM -RA BR BKN009 OVC015
     FM251500 34006KT 6SM -RA SCT009 BKN020=

Latest METAR

851
SAUS70 KWBC 250200 RRJ
MTRFLO
METAR KFLO 250153Z 22005KT 10SM FEW110 18/16 A2994 RMK AO2 SLP137
T01780156


USA.gov is the U.S. government's official web portal to all federal, state and local government web resources and services.